sensor_id;sensor_type;location;lat;lon;timestamp;P1;durP1;ratioP1;P2;durP2;ratioP2
56161;SDS011;42045;52.986;6.014;2022-12-05T00:03:49;29.55;;;18.58;;
56161;SDS011;42045;52.986;6.014;2022-12-05T00:06:16;26.77;;;19.27;;
56161;SDS011;42045;52.986;6.014;2022-12-05T00:08:43;29.83;;;19.60;;
56161;SDS011;42045;52.986;6.014;2022-12-05T00:11:10;27.90;;;20.00;;
56161;SDS011;42045;52.986;6.014;2022-12-05T00:13:37;31.38;;;20.83;;
56161;SDS011;42045;52.986;6.014;2022-12-05T00:16:05;31.50;;;20.88;;
56161;SDS011;42045;52.986;6.014;2022-12-05T00:18:32;30.52;;;19.42;;
56161;SDS011;42045;52.986;6.014;2022-12-05T00:20:58;29.27;;;19.98;;
56161;SDS011;42045;52.986;6.014;2022-12-05T00:23:24;30.02;;;20.02;;
56161;SDS011;42045;52.986;6.014;2022-12-05T00:25:49;32.38;;;21.77;;
56161;SDS011;42045;52.986;6.014;2022-12-05T00:28:15;32.45;;;21.23;;
56161;SDS011;42045;52.986;6.014;2022-12-05T00:30:41;33.72;;;21.83;;
56161;SDS011;42045;52.986;6.014;2022-12-05T00:33:07;35.25;;;23.35;;
56161;SDS011;42045;52.986;6.014;2022-12-05T00:35:33;32.90;;;21.38;;
56161;SDS011;42045;52.986;6.014;2022-12-05T00:37:58;30.50;;;21.95;;
56161;SDS011;42045;52.986;6.014;2022-12-05T00:40:24;32.58;;;20.70;;
56161;SDS011;42045;52.986;6.014;2022-12-05T00:42:49;31.63;;;21.63;;
56161;SDS011;42045;52.986;6.014;2022-12-05T00:45:15;34.42;;;22.58;;
56161;SDS011;42045;52.986;6.014;2022-12-05T00:47:41;32.90;;;21.23;;
56161;SDS011;42045;52.986;6.014;2022-12-05T00:50:06;35.97;;;23.50;;
56161;SDS011;42045;52.986;6.014;2022-12-05T00:52:33;31.88;;;21.80;;
56161;SDS011;42045;52.986;6.014;2022-12-05T00:54:58;31.58;;;20.48;;
56161;SDS011;42045;52.986;6.014;2022-12-05T00:57:24;33.30;;;21.45;;
56161;SDS011;42045;52.986;6.014;2022-12-05T00:59:50;34.47;;;22.38;;
56161;SDS011;42045;52.986;6.014;2022-12-05T01:02:15;32.17;;;22.58;;
56161;SDS011;42045;52.986;6.014;2022-12-05T01:04:41;30.95;;;22.60;;
56161;SDS011;42045;52.986;6.014;2022-12-05T01:07:06;34.13;;;22.40;;
56161;SDS011;42045;52.986;6.014;2022-12-05T01:09:32;34.65;;;22.17;;
56161;SDS011;42045;52.986;6.014;2022-12-05T01:11:58;32.17;;;22.10;;
56161;SDS011;42045;52.986;6.014;2022-12-05T01:14:24;31.80;;;22.35;;
56161;SDS011;42045;52.986;6.014;2022-12-05T01:16:51;35.92;;;23.48;;
56161;SDS011;42045;52.986;6.014;2022-12-05T01:19:28;32.65;;;21.48;;
56161;SDS011;42045;52.986;6.014;2022-12-05T01:21:55;34.20;;;23.98;;
56161;SDS011;42045;52.986;6.014;2022-12-05T01:24:22;33.40;;;22.17;;
56161;SDS011;42045;52.986;6.014;2022-12-05T01:26:49;34.58;;;21.95;;
56161;SDS011;42045;52.986;6.014;2022-12-05T01:29:16;33.40;;;23.58;;
56161;SDS011;42045;52.986;6.014;2022-12-05T01:31:42;35.13;;;23.33;;
56161;SDS011;42045;52.986;6.014;2022-12-05T01:34:12;36.25;;;23.33;;
56161;SDS011;42045;52.986;6.014;2022-12-05T01:36:39;34.70;;;22.88;;
56161;SDS011;42045;52.986;6.014;2022-12-05T01:39:05;36.53;;;23.27;;
56161;SDS011;42045;52.986;6.014;2022-12-05T01:41:33;35.58;;;22.95;;
56161;SDS011;42045;52.986;6.014;2022-12-05T01:46:36;39.60;;;25.17;;
56161;SDS011;42045;52.986;6.014;2022-12-05T01:51:34;36.92;;;25.17;;
56161;SDS011;42045;52.986;6.014;2022-12-05T01:54:02;37.67;;;24.80;;
56161;SDS011;42045;52.986;6.014;2022-12-05T01:56:30;37.78;;;25.35;;
56161;SDS011;42045;52.986;6.014;2022-12-05T01:58:58;39.78;;;25.15;;
56161;SDS011;42045;52.986;6.014;2022-12-05T02:01:25;40.10;;;25.33;;
56161;SDS011;42045;52.986;6.014;2022-12-05T02:03:51;39.08;;;24.80;;
56161;SDS011;42045;52.986;6.014;2022-12-05T02:06:21;39.08;;;25.35;;
56161;SDS011;42045;52.986;6.014;2022-12-05T02:08:48;36.65;;;24.38;;
56161;SDS011;42045;52.986;6.014;2022-12-05T02:11:16;39.70;;;25.10;;
56161;SDS011;42045;52.986;6.014;2022-12-05T02:16:13;36.42;;;24.27;;
56161;SDS011;42045;52.986;6.014;2022-12-05T02:29:57;36.85;;;24.35;;
56161;SDS011;42045;52.986;6.014;2022-12-05T02:32:46;39.30;;;25.15;;
56161;SDS011;42045;52.986;6.014;2022-12-05T02:35:29;34.75;;;22.52;;
56161;SDS011;42045;52.986;6.014;2022-12-05T02:41:02;38.58;;;25.15;;
56161;SDS011;42045;52.986;6.014;2022-12-05T02:46:25;38.15;;;24.35;;
56161;SDS011;42045;52.986;6.014;2022-12-05T02:48:55;36.25;;;24.23;;
56161;SDS011;42045;52.986;6.014;2022-12-05T02:51:27;31.42;;;21.65;;
56161;SDS011;42045;52.986;6.014;2022-12-05T02:53:58;37.20;;;23.75;;
56161;SDS011;42045;52.986;6.014;2022-12-05T02:56:28;34.95;;;24.02;;
56161;SDS011;42045;52.986;6.014;2022-12-05T02:58:56;35.83;;;23.15;;
56161;SDS011;42045;52.986;6.014;2022-12-05T03:01:23;31.10;;;21.70;;
56161;SDS011;42045;52.986;6.014;2022-12-05T03:03:51;33.17;;;20.63;;
56161;SDS011;42045;52.986;6.014;2022-12-05T03:06:19;32.20;;;21.42;;
56161;SDS011;42045;52.986;6.014;2022-12-05T03:08:57;28.98;;;20.52;;
56161;SDS011;42045;52.986;6.014;2022-12-05T03:11:29;28.52;;;20.10;;
56161;SDS011;42045;52.986;6.014;2022-12-05T03:14:02;30.65;;;20.73;;
56161;SDS011;42045;52.986;6.014;2022-12-05T03:16:33;29.48;;;20.80;;
56161;SDS011;42045;52.986;6.014;2022-12-05T03:22:05;24.92;;;18.23;;
56161;SDS011;42045;52.986;6.014;2022-12-05T03:24:35;25.48;;;17.45;;
56161;SDS011;42045;52.986;6.014;2022-12-05T03:27:15;21.95;;;16.38;;
56161;SDS011;42045;52.986;6.014;2022-12-05T03:32:36;22.50;;;16.98;;
56161;SDS011;42045;52.986;6.014;2022-12-05T03:37:51;22.05;;;15.52;;
56161;SDS011;42045;52.986;6.014;2022-12-05T03:40:29;19.98;;;14.88;;
56161;SDS011;42045;52.986;6.014;2022-12-05T03:46:03;18.90;;;14.32;;
56161;SDS011;42045;52.986;6.014;2022-12-05T03:48:56;19.08;;;14.23;;
56161;SDS011;42045;52.986;6.014;2022-12-05T03:51:27;21.08;;;14.80;;
56161;SDS011;42045;52.986;6.014;2022-12-05T03:53:59;21.25;;;13.00;;
56161;SDS011;42045;52.986;6.014;2022-12-05T03:56:33;15.98;;;12.95;;
56161;SDS011;42045;52.986;6.014;2022-12-05T04:01:45;16.92;;;12.95;;
56161;SDS011;42045;52.986;6.014;2022-12-05T04:04:15;21.42;;;13.90;;
56161;SDS011;42045;52.986;6.014;2022-12-05T04:06:44;20.83;;;13.55;;
56161;SDS011;42045;52.986;6.014;2022-12-05T04:09:14;17.75;;;13.88;;
56161;SDS011;42045;52.986;6.014;2022-12-05T04:11:47;17.83;;;12.80;;
56161;SDS011;42045;52.986;6.014;2022-12-05T04:16:58;18.25;;;14.13;;
56161;SDS011;42045;52.986;6.014;2022-12-05T04:22:30;15.75;;;11.75;;
56161;SDS011;42045;52.986;6.014;2022-12-05T04:24:57;16.15;;;12.75;;
56161;SDS011;42045;52.986;6.014;2022-12-05T04:30:25;19.25;;;13.20;;
56161;SDS011;42045;52.986;6.014;2022-12-05T04:33:01;19.80;;;13.35;;
56161;SDS011;42045;52.986;6.014;2022-12-05T04:35:47;16.67;;;11.88;;
56161;SDS011;42045;52.986;6.014;2022-12-05T04:38:23;15.60;;;11.48;;
56161;SDS011;42045;52.986;6.014;2022-12-05T04:41:23;18.33;;;11.65;;
56161;SDS011;42045;52.986;6.014;2022-12-05T04:43:57;16.27;;;11.65;;
56161;SDS011;42045;52.986;6.014;2022-12-05T04:46:26;16.83;;;11.82;;
56161;SDS011;42045;52.986;6.014;2022-12-05T04:48:53;16.42;;;11.13;;
56161;SDS011;42045;52.986;6.014;2022-12-05T04:51:23;17.10;;;11.13;;
56161;SDS011;42045;52.986;6.014;2022-12-05T04:53:57;16.38;;;10.88;;
56161;SDS011;42045;52.986;6.014;2022-12-05T04:56:44;15.73;;;10.73;;
56161;SDS011;42045;52.986;6.014;2022-12-05T04:59:13;14.43;;;11.18;;
56161;SDS011;42045;52.986;6.014;2022-12-05T05:01:49;16.00;;;11.05;;
56161;SDS011;42045;52.986;6.014;2022-12-05T05:04:29;16.95;;;12.07;;
56161;SDS011;42045;52.986;6.014;2022-12-05T05:07:07;16.65;;;12.68;;
56161;SDS011;42045;52.986;6.014;2022-12-05T05:09:34;15.52;;;11.80;;
56161;SDS011;42045;52.986;6.014;2022-12-05T05:12:00;15.27;;;12.35;;
56161;SDS011;42045;52.986;6.014;2022-12-05T05:14:26;19.80;;;12.30;;
56161;SDS011;42045;52.986;6.014;2022-12-05T05:16:51;15.13;;;11.57;;
56161;SDS011;42045;52.986;6.014;2022-12-05T05:19:17;15.88;;;11.57;;
56161;SDS011;42045;52.986;6.014;2022-12-05T05:21:43;17.75;;;12.70;;
56161;SDS011;42045;52.986;6.014;2022-12-05T05:24:09;18.20;;;13.25;;
56161;SDS011;42045;52.986;6.014;2022-12-05T05:26:37;19.45;;;12.85;;
56161;SDS011;42045;52.986;6.014;2022-12-05T05:29:05;18.42;;;13.00;;
56161;SDS011;42045;52.986;6.014;2022-12-05T05:31:32;17.55;;;12.65;;
56161;SDS011;42045;52.986;6.014;2022-12-05T05:33:57;19.88;;;13.02;;
56161;SDS011;42045;52.986;6.014;2022-12-05T05:36:25;19.25;;;12.23;;
56161;SDS011;42045;52.986;6.014;2022-12-05T05:38:53;19.80;;;13.82;;
56161;SDS011;42045;52.986;6.014;2022-12-05T05:41:25;19.00;;;12.30;;
56161;SDS011;42045;52.986;6.014;2022-12-05T05:43:52;17.90;;;12.35;;
56161;SDS011;42045;52.986;6.014;2022-12-05T05:46:19;19.05;;;12.48;;
56161;SDS011;42045;52.986;6.014;2022-12-05T05:48:48;18.02;;;12.60;;
56161;SDS011;42045;52.986;6.014;2022-12-05T05:51:14;21.13;;;13.18;;
56161;SDS011;42045;52.986;6.014;2022-12-05T05:53:41;14.52;;;11.13;;
56161;SDS011;42045;52.986;6.014;2022-12-05T05:56:08;17.70;;;12.13;;
56161;SDS011;42045;52.986;6.014;2022-12-05T05:58:38;15.25;;;12.13;;
56161;SDS011;42045;52.986;6.014;2022-12-05T06:01:15;14.30;;;10.75;;
56161;SDS011;42045;52.986;6.014;2022-12-05T06:03:44;15.18;;;12.40;;
56161;SDS011;42045;52.986;6.014;2022-12-05T06:06:10;18.70;;;12.13;;
56161;SDS011;42045;52.986;6.014;2022-12-05T06:08:39;19.00;;;11.50;;
56161;SDS011;42045;52.986;6.014;2022-12-05T06:11:10;20.27;;;13.02;;
56161;SDS011;42045;52.986;6.014;2022-12-05T06:13:37;19.38;;;12.23;;
56161;SDS011;42045;52.986;6.014;2022-12-05T06:16:04;21.60;;;12.90;;
56161;SDS011;42045;52.986;6.014;2022-12-05T06:18:31;17.73;;;11.73;;
56161;SDS011;42045;52.986;6.014;2022-12-05T06:20:57;16.98;;;11.18;;
56161;SDS011;42045;52.986;6.014;2022-12-05T06:23:23;212.25;;;26.17;;
56161;SDS011;42045;52.986;6.014;2022-12-05T06:25:50;17.85;;;10.98;;
56161;SDS011;42045;52.986;6.014;2022-12-05T06:28:18;18.33;;;11.98;;
56161;SDS011;42045;52.986;6.014;2022-12-05T06:30:44;17.48;;;11.82;;
56161;SDS011;42045;52.986;6.014;2022-12-05T06:33:10;31.80;;;12.07;;
56161;SDS011;42045;52.986;6.014;2022-12-05T06:35:36;14.63;;;10.80;;
56161;SDS011;42045;52.986;6.014;2022-12-05T06:38:02;26.45;;;12.27;;
56161;SDS011;42045;52.986;6.014;2022-12-05T06:40:28;13.68;;;10.75;;
56161;SDS011;42045;52.986;6.014;2022-12-05T06:42:54;16.23;;;11.57;;
56161;SDS011;42045;52.986;6.014;2022-12-05T06:45:20;36.45;;;13.52;;
56161;SDS011;42045;52.986;6.014;2022-12-05T06:47:45;14.18;;;10.07;;
56161;SDS011;42045;52.986;6.014;2022-12-05T06:50:11;34.42;;;13.38;;
56161;SDS011;42045;52.986;6.014;2022-12-05T06:52:37;16.45;;;10.77;;
56161;SDS011;42045;52.986;6.014;2022-12-05T06:55:02;17.33;;;11.95;;
56161;SDS011;42045;52.986;6.014;2022-12-05T06:57:29;14.73;;;10.93;;
56161;SDS011;42045;52.986;6.014;2022-12-05T06:59:54;60.03;;;14.35;;
56161;SDS011;42045;52.986;6.014;2022-12-05T07:02:40;26.73;;;12.15;;
56161;SDS011;42045;52.986;6.014;2022-12-05T07:05:07;16.52;;;11.40;;
56161;SDS011;42045;52.986;6.014;2022-12-05T07:07:33;16.27;;;11.77;;
56161;SDS011;42045;52.986;6.014;2022-12-05T07:09:59;15.95;;;12.00;;
56161;SDS011;42045;52.986;6.014;2022-12-05T07:12:24;14.48;;;11.00;;
56161;SDS011;42045;52.986;6.014;2022-12-05T07:14:50;14.93;;;10.50;;
56161;SDS011;42045;52.986;6.014;2022-12-05T07:17:16;20.30;;;11.85;;
56161;SDS011;42045;52.986;6.014;2022-12-05T07:19:43;14.27;;;11.68;;
56161;SDS011;42045;52.986;6.014;2022-12-05T07:22:08;15.63;;;11.10;;
56161;SDS011;42045;52.986;6.014;2022-12-05T07:24:34;15.48;;;10.73;;
56161;SDS011;42045;52.986;6.014;2022-12-05T07:26:59;13.68;;;10.73;;
56161;SDS011;42045;52.986;6.014;2022-12-05T07:29:25;17.00;;;11.77;;
56161;SDS011;42045;52.986;6.014;2022-12-05T07:31:52;15.25;;;11.15;;
56161;SDS011;42045;52.986;6.014;2022-12-05T07:34:18;17.70;;;11.77;;
56161;SDS011;42045;52.986;6.014;2022-12-05T07:36:43;17.48;;;11.40;;
56161;SDS011;42045;52.986;6.014;2022-12-05T07:39:09;16.23;;;11.77;;
56161;SDS011;42045;52.986;6.014;2022-12-05T07:41:34;21.63;;;12.35;;
56161;SDS011;42045;52.986;6.014;2022-12-05T07:44:00;16.73;;;11.65;;
56161;SDS011;42045;52.986;6.014;2022-12-05T07:46:27;18.30;;;10.95;;
56161;SDS011;42045;52.986;6.014;2022-12-05T07:48:53;17.63;;;11.52;;
56161;SDS011;42045;52.986;6.014;2022-12-05T07:51:19;17.02;;;11.75;;
56161;SDS011;42045;52.986;6.014;2022-12-05T07:53:46;19.45;;;11.90;;
56161;SDS011;42045;52.986;6.014;2022-12-05T07:56:13;20.45;;;11.90;;
56161;SDS011;42045;52.986;6.014;2022-12-05T07:58:41;20.88;;;11.57;;
56161;SDS011;42045;52.986;6.014;2022-12-05T08:03:41;21.52;;;12.10;;
56161;SDS011;42045;52.986;6.014;2022-12-05T08:06:09;19.48;;;11.98;;
56161;SDS011;42045;52.986;6.014;2022-12-05T08:08:37;20.30;;;12.75;;
56161;SDS011;42045;52.986;6.014;2022-12-05T08:11:03;20.63;;;11.18;;
56161;SDS011;42045;52.986;6.014;2022-12-05T08:13:31;22.02;;;11.77;;
56161;SDS011;42045;52.986;6.014;2022-12-05T08:16:01;19.58;;;11.57;;
56161;SDS011;42045;52.986;6.014;2022-12-05T08:18:31;21.10;;;12.95;;
56161;SDS011;42045;52.986;6.014;2022-12-05T08:21:01;17.90;;;11.68;;
56161;SDS011;42045;52.986;6.014;2022-12-05T08:23:28;21.55;;;12.40;;
56161;SDS011;42045;52.986;6.014;2022-12-05T08:25:55;20.92;;;12.55;;
56161;SDS011;42045;52.986;6.014;2022-12-05T08:28:20;22.38;;;12.95;;
56161;SDS011;42045;52.986;6.014;2022-12-05T08:30:46;23.23;;;13.98;;
56161;SDS011;42045;52.986;6.014;2022-12-05T08:33:12;20.70;;;13.98;;
56161;SDS011;42045;52.986;6.014;2022-12-05T08:35:37;27.35;;;14.85;;
56161;SDS011;42045;52.986;6.014;2022-12-05T08:38:03;21.65;;;13.48;;
56161;SDS011;42045;52.986;6.014;2022-12-05T08:40:29;20.42;;;13.85;;
56161;SDS011;42045;52.986;6.014;2022-12-05T08:42:55;22.85;;;13.30;;
56161;SDS011;42045;52.986;6.014;2022-12-05T08:45:21;24.55;;;13.73;;
56161;SDS011;42045;52.986;6.014;2022-12-05T08:47:47;22.65;;;14.48;;
56161;SDS011;42045;52.986;6.014;2022-12-05T08:50:13;25.65;;;13.82;;
56161;SDS011;42045;52.986;6.014;2022-12-05T08:52:38;28.95;;;14.30;;
56161;SDS011;42045;52.986;6.014;2022-12-05T08:55:04;27.58;;;14.00;;
56161;SDS011;42045;52.986;6.014;2022-12-05T08:57:30;23.35;;;12.65;;
56161;SDS011;42045;52.986;6.014;2022-12-05T08:59:56;21.77;;;12.55;;
56161;SDS011;42045;52.986;6.014;2022-12-05T09:02:22;22.65;;;12.60;;
56161;SDS011;42045;52.986;6.014;2022-12-05T09:04:51;26.40;;;13.23;;
56161;SDS011;42045;52.986;6.014;2022-12-05T09:07:16;24.00;;;12.95;;
56161;SDS011;42045;52.986;6.014;2022-12-05T09:09:42;24.15;;;13.05;;
56161;SDS011;42045;52.986;6.014;2022-12-05T09:12:08;20.60;;;12.25;;
56161;SDS011;42045;52.986;6.014;2022-12-05T09:14:33;26.20;;;14.05;;
56161;SDS011;42045;52.986;6.014;2022-12-05T09:16:59;20.88;;;12.88;;
56161;SDS011;42045;52.986;6.014;2022-12-05T09:19:25;26.27;;;12.23;;
56161;SDS011;42045;52.986;6.014;2022-12-05T09:21:53;19.13;;;11.57;;
56161;SDS011;42045;52.986;6.014;2022-12-05T09:24:19;21.70;;;12.20;;
56161;SDS011;42045;52.986;6.014;2022-12-05T09:26:45;22.73;;;11.93;;
56161;SDS011;42045;52.986;6.014;2022-12-05T09:29:11;20.77;;;11.52;;
56161;SDS011;42045;52.986;6.014;2022-12-05T09:31:37;21.55;;;11.13;;
56161;SDS011;42045;52.986;6.014;2022-12-05T09:34:03;21.92;;;11.55;;
56161;SDS011;42045;52.986;6.014;2022-12-05T09:36:30;19.08;;;11.00;;
56161;SDS011;42045;52.986;6.014;2022-12-05T09:39:00;20.08;;;10.05;;
56161;SDS011;42045;52.986;6.014;2022-12-05T09:47:48;26.15;;;13.32;;
56161;SDS011;42045;52.986;6.014;2022-12-05T09:49:51;19.88;;;10.65;;
56161;SDS011;42045;52.986;6.014;2022-12-05T09:52:37;22.67;;;11.95;;
56161;SDS011;42045;52.986;6.014;2022-12-05T09:55:12;19.92;;;10.75;;
56161;SDS011;42045;52.986;6.014;2022-12-05T09:57:43;19.52;;;9.50;;
56161;SDS011;42045;52.986;6.014;2022-12-05T10:00:15;22.90;;;10.75;;
56161;SDS011;42045;52.986;6.014;2022-12-05T10:02:46;20.77;;;11.88;;
56161;SDS011;42045;52.986;6.014;2022-12-05T10:05:26;19.27;;;10.98;;
56161;SDS011;42045;52.986;6.014;2022-12-05T10:08:16;20.13;;;12.48;;
56161;SDS011;42045;52.986;6.014;2022-12-05T10:11:02;21.17;;;12.75;;
56161;SDS011;42045;52.986;6.014;2022-12-05T10:15:59;20.20;;;11.00;;
56161;SDS011;42045;52.986;6.014;2022-12-05T10:26:19;21.55;;;14.43;;
56161;SDS011;42045;52.986;6.014;2022-12-05T10:28:49;23.35;;;13.05;;
56161;SDS011;42045;52.986;6.014;2022-12-05T10:31:21;23.45;;;13.95;;
56161;SDS011;42045;52.986;6.014;2022-12-05T10:34:03;20.48;;;12.38;;
56161;SDS011;42045;52.986;6.014;2022-12-05T10:36:55;24.65;;;13.68;;
56161;SDS011;42045;52.986;6.014;2022-12-05T10:39:26;24.58;;;13.93;;
56161;SDS011;42045;52.986;6.014;2022-12-05T10:41:52;24.80;;;14.48;;
56161;SDS011;42045;52.986;6.014;2022-12-05T10:44:19;23.52;;;13.23;;
56161;SDS011;42045;52.986;6.014;2022-12-05T10:46:45;26.75;;;14.32;;
56161;SDS011;42045;52.986;6.014;2022-12-05T10:49:11;31.27;;;14.43;;
56161;SDS011;42045;52.986;6.014;2022-12-05T10:51:37;27.98;;;15.43;;
56161;SDS011;42045;52.986;6.014;2022-12-05T10:54:14;25.15;;;14.02;;
56161;SDS011;42045;52.986;6.014;2022-12-05T10:59:16;23.35;;;15.35;;
56161;SDS011;42045;52.986;6.014;2022-12-05T11:06:50;24.98;;;14.05;;
56161;SDS011;42045;52.986;6.014;2022-12-05T11:09:24;27.38;;;14.20;;
56161;SDS011;42045;52.986;6.014;2022-12-05T11:14:33;24.25;;;13.93;;
56161;SDS011;42045;52.986;6.014;2022-12-05T11:17:01;23.75;;;13.10;;
56161;SDS011;42045;52.986;6.014;2022-12-05T11:21:59;22.42;;;13.85;;
56161;SDS011;42045;52.986;6.014;2022-12-05T11:26:51;25.45;;;14.60;;
56161;SDS011;42045;52.986;6.014;2022-12-05T11:29:36;32.33;;;15.02;;
56161;SDS011;42045;52.986;6.014;2022-12-05T11:32:03;22.90;;;13.70;;
56161;SDS011;42045;52.986;6.014;2022-12-05T11:34:52;25.30;;;13.30;;
56161;SDS011;42045;52.986;6.014;2022-12-05T11:37:29;19.83;;;12.50;;
56161;SDS011;42045;52.986;6.014;2022-12-05T11:40:01;21.13;;;13.52;;
56161;SDS011;42045;52.986;6.014;2022-12-05T11:42:39;20.10;;;12.85;;
56161;SDS011;42045;52.986;6.014;2022-12-05T11:48:03;23.05;;;12.88;;
56161;SDS011;42045;52.986;6.014;2022-12-05T11:53:35;19.58;;;12.55;;
56161;SDS011;42045;52.986;6.014;2022-12-05T11:58:54;23.98;;;12.80;;
56161;SDS011;42045;52.986;6.014;2022-12-05T12:01:43;27.00;;;12.85;;
56161;SDS011;42045;52.986;6.014;2022-12-05T12:17:54;20.90;;;12.38;;
56161;SDS011;42045;52.986;6.014;2022-12-05T12:30:58;16.45;;;9.73;;
56161;SDS011;42045;52.986;6.014;2022-12-05T12:33:41;26.25;;;20.33;;
56161;SDS011;42045;52.986;6.014;2022-12-05T12:36:17;17.60;;;11.13;;
56161;SDS011;42045;52.986;6.014;2022-12-05T12:47:24;14.13;;;9.52;;
56161;SDS011;42045;52.986;6.014;2022-12-05T12:58:12;14.80;;;9.40;;
56161;SDS011;42045;52.986;6.014;2022-12-05T13:01:00;12.52;;;7.90;;
56161;SDS011;42045;52.986;6.014;2022-12-05T13:03:39;15.80;;;8.70;;
56161;SDS011;42045;52.986;6.014;2022-12-05T13:06:15;15.35;;;8.35;;
56161;SDS011;42045;52.986;6.014;2022-12-05T13:08:50;12.77;;;8.20;;
56161;SDS011;42045;52.986;6.014;2022-12-05T13:11:23;15.23;;;8.05;;
56161;SDS011;42045;52.986;6.014;2022-12-05T13:13:54;17.40;;;7.97;;
56161;SDS011;42045;52.986;6.014;2022-12-05T13:16:29;12.70;;;9.48;;
56161;SDS011;42045;52.986;6.014;2022-12-05T13:19:04;12.13;;;6.72;;
56161;SDS011;42045;52.986;6.014;2022-12-05T13:21:31;16.77;;;8.43;;
56161;SDS011;42045;52.986;6.014;2022-12-05T13:23:57;13.65;;;9.13;;
56161;SDS011;42045;52.986;6.014;2022-12-05T13:26:27;30.83;;;26.80;;
56161;SDS011;42045;52.986;6.014;2022-12-05T13:28:56;12.00;;;7.40;;
56161;SDS011;42045;52.986;6.014;2022-12-05T13:31:37;10.30;;;6.55;;
56161;SDS011;42045;52.986;6.014;2022-12-05T13:37:24;7.05;;;4.57;;
56161;SDS011;42045;52.986;6.014;2022-12-05T13:43:13;11.35;;;4.80;;
56161;SDS011;42045;52.986;6.014;2022-12-05T13:45:52;8.20;;;4.45;;
56161;SDS011;42045;52.986;6.014;2022-12-05T13:48:26;8.37;;;4.23;;
56161;SDS011;42045;52.986;6.014;2022-12-05T13:51:00;9.13;;;4.80;;
56161;SDS011;42045;52.986;6.014;2022-12-05T13:58:48;7.05;;;4.85;;
56161;SDS011;42045;52.986;6.014;2022-12-05T14:08:59;5.95;;;4.00;;
56161;SDS011;42045;52.986;6.014;2022-12-05T14:12:27;7.85;;;3.97;;
56161;SDS011;42045;52.986;6.014;2022-12-05T14:17:22;9.70;;;6.43;;
56161;SDS011;42045;52.986;6.014;2022-12-05T14:22:18;48.33;;;39.90;;
56161;SDS011;42045;52.986;6.014;2022-12-05T14:24:56;6.72;;;4.30;;
56161;SDS011;42045;52.986;6.014;2022-12-05T14:33:12;12.35;;;6.65;;
56161;SDS011;42045;52.986;6.014;2022-12-05T14:35:41;14.13;;;5.82;;
56161;SDS011;42045;52.986;6.014;2022-12-05T14:38:29;7.55;;;4.68;;
56161;SDS011;42045;52.986;6.014;2022-12-05T14:41:10;9.00;;;5.15;;
56161;SDS011;42045;52.986;6.014;2022-12-05T14:43:41;8.98;;;5.20;;
56161;SDS011;42045;52.986;6.014;2022-12-05T14:46:14;8.48;;;5.13;;
56161;SDS011;42045;52.986;6.014;2022-12-05T14:48:46;7.25;;;4.93;;
56161;SDS011;42045;52.986;6.014;2022-12-05T14:56:41;10.88;;;4.93;;
56161;SDS011;42045;52.986;6.014;2022-12-05T14:59:22;10.15;;;5.25;;
56161;SDS011;42045;52.986;6.014;2022-12-05T15:01:55;9.60;;;5.43;;
56161;SDS011;42045;52.986;6.014;2022-12-05T15:07:18;8.80;;;6.00;;
56161;SDS011;42045;52.986;6.014;2022-12-05T15:12:43;8.80;;;5.38;;
56161;SDS011;42045;52.986;6.014;2022-12-05T15:15:12;8.88;;;5.60;;
56161;SDS011;42045;52.986;6.014;2022-12-05T15:18:02;9.00;;;5.80;;
56161;SDS011;42045;52.986;6.014;2022-12-05T15:20:46;11.38;;;6.20;;
56161;SDS011;42045;52.986;6.014;2022-12-05T15:39:55;12.02;;;5.95;;
56161;SDS011;42045;52.986;6.014;2022-12-05T15:42:26;10.27;;;6.90;;
56161;SDS011;42045;52.986;6.014;2022-12-05T15:47:43;15.27;;;6.88;;
56161;SDS011;42045;52.986;6.014;2022-12-05T15:50:13;11.93;;;6.72;;
56161;SDS011;42045;52.986;6.014;2022-12-05T15:52:43;12.00;;;5.80;;
56161;SDS011;42045;52.986;6.014;2022-12-05T15:55:13;10.13;;;6.47;;
56161;SDS011;42045;52.986;6.014;2022-12-05T15:57:53;11.20;;;6.53;;
56161;SDS011;42045;52.986;6.014;2022-12-05T16:00:23;9.88;;;5.90;;
56161;SDS011;42045;52.986;6.014;2022-12-05T16:05:32;11.50;;;6.18;;
56161;SDS011;42045;52.986;6.014;2022-12-05T16:08:03;13.35;;;6.30;;
56161;SDS011;42045;52.986;6.014;2022-12-05T16:10:30;10.80;;;6.30;;
56161;SDS011;42045;52.986;6.014;2022-12-05T16:13:06;11.68;;;6.80;;
56161;SDS011;42045;52.986;6.014;2022-12-05T16:15:41;11.48;;;6.45;;
56161;SDS011;42045;52.986;6.014;2022-12-05T16:18:46;14.55;;;7.28;;
56161;SDS011;42045;52.986;6.014;2022-12-05T16:21:26;14.27;;;7.28;;
56161;SDS011;42045;52.986;6.014;2022-12-05T16:24:02;7.82;;;5.88;;
56161;SDS011;42045;52.986;6.014;2022-12-05T16:26:40;18.20;;;7.83;;
56161;SDS011;42045;52.986;6.014;2022-12-05T16:29:06;13.77;;;7.28;;
56161;SDS011;42045;52.986;6.014;2022-12-05T16:31:55;13.30;;;7.00;;
56161;SDS011;42045;52.986;6.014;2022-12-05T16:34:22;16.38;;;6.90;;
56161;SDS011;42045;52.986;6.014;2022-12-05T16:36:50;11.00;;;7.15;;
56161;SDS011;42045;52.986;6.014;2022-12-05T16:39:17;14.48;;;7.60;;
56161;SDS011;42045;52.986;6.014;2022-12-05T16:41:44;11.45;;;7.65;;
56161;SDS011;42045;52.986;6.014;2022-12-05T16:44:34;12.18;;;7.72;;
56161;SDS011;42045;52.986;6.014;2022-12-05T16:47:24;12.35;;;7.72;;
56161;SDS011;42045;52.986;6.014;2022-12-05T16:49:52;13.38;;;7.78;;
56161;SDS011;42045;52.986;6.014;2022-12-05T16:52:18;10.48;;;7.18;;
56161;SDS011;42045;52.986;6.014;2022-12-05T16:54:46;8.75;;;6.32;;
56161;SDS011;42045;52.986;6.014;2022-12-05T16:57:13;11.65;;;7.25;;
56161;SDS011;42045;52.986;6.014;2022-12-05T16:59:40;13.05;;;7.00;;
56161;SDS011;42045;52.986;6.014;2022-12-05T17:02:11;10.75;;;6.45;;
56161;SDS011;42045;52.986;6.014;2022-12-05T17:04:39;11.25;;;6.78;;
56161;SDS011;42045;52.986;6.014;2022-12-05T17:07:05;9.63;;;7.05;;
56161;SDS011;42045;52.986;6.014;2022-12-05T17:09:30;11.57;;;6.57;;
56161;SDS011;42045;52.986;6.014;2022-12-05T17:11:59;11.65;;;6.72;;
56161;SDS011;42045;52.986;6.014;2022-12-05T17:14:30;11.98;;;6.88;;
56161;SDS011;42045;52.986;6.014;2022-12-05T17:16:56;10.90;;;6.50;;
56161;SDS011;42045;52.986;6.014;2022-12-05T17:19:22;11.82;;;6.55;;
56161;SDS011;42045;52.986;6.014;2022-12-05T17:21:48;9.70;;;6.60;;
56161;SDS011;42045;52.986;6.014;2022-12-05T17:24:15;11.38;;;6.43;;
56161;SDS011;42045;52.986;6.014;2022-12-05T17:26:42;10.88;;;6.38;;
56161;SDS011;42045;52.986;6.014;2022-12-05T17:29:08;10.15;;;6.53;;
56161;SDS011;42045;52.986;6.014;2022-12-05T17:31:34;8.85;;;6.32;;
56161;SDS011;42045;52.986;6.014;2022-12-05T17:34:00;10.13;;;6.10;;
56161;SDS011;42045;52.986;6.014;2022-12-05T17:36:26;11.05;;;6.65;;
56161;SDS011;42045;52.986;6.014;2022-12-05T17:38:52;9.73;;;6.25;;
56161;SDS011;42045;52.986;6.014;2022-12-05T17:41:21;10.60;;;6.70;;
56161;SDS011;42045;52.986;6.014;2022-12-05T17:43:48;10.10;;;6.15;;
56161;SDS011;42045;52.986;6.014;2022-12-05T17:46:16;9.65;;;5.88;;
56161;SDS011;42045;52.986;6.014;2022-12-05T17:48:43;10.85;;;6.28;;
56161;SDS011;42045;52.986;6.014;2022-12-05T17:51:09;8.98;;;6.05;;
56161;SDS011;42045;52.986;6.014;2022-12-05T17:53:37;11.55;;;6.07;;
56161;SDS011;42045;52.986;6.014;2022-12-05T17:56:03;12.50;;;6.28;;
56161;SDS011;42045;52.986;6.014;2022-12-05T17:58:29;8.60;;;5.72;;
56161;SDS011;42045;52.986;6.014;2022-12-05T18:00:54;10.60;;;6.32;;